الصفحة الرئيسية
METAR-TAF:

METAR-TAF

مطار :

هانوي, فيتنام

دائرة عرض: 21-01N, خط طول: 105-48E, ارتفاع: 6 متر

مراقبة الطقس الحالي

تاريخ ووقت الإصدار 12 دقيقة قبل الساعة 16:00UTC
ريح 11 عقدة من الجنوب الشرقي
درجة الحرارة 26°درجة مئوية
الرطوبة 84%
ضغط 1006 hPa
الرؤية: 9000 متر
غيوم مفككة على ارتفاع 1300 قدم

METAR: VVNB 221600Z 14011KT 9000 BKN013 26/23 Q1006 NOSIG

زمن: 23:12 (16:12 UTC)

توقعات

تاريخ ووقت الإصدار 5ساعات و 12 دقيقة قبل الساعة 11:00UTC
التوقعات صالحة من22 الساعة 12 UTC إلى 23 الساعة 12 UTC
ريح 12 عقدة من الشرق/الجنوب الشرقي
الرؤية 10 كم أو أكثر
غيوم متفرقة على ارتفاع 1500 قدم
غيوم مفككة على ارتفاع 2300 قدم
مؤقت
من 22 الساعة 22 UTC إلى 23 الساعة 01 UTC
الرؤية: 4000 متر
غيوم مفككة على ارتفاع 1000 قدم
مطر خفيف, غشاء

TAF: VVNB 221100Z 2212/2312 12012KT 9999 SCT015 BKN023 TEMPO 2222/2301 4000 -RA BR BKN010

أرصاد الطقس والتوقعات من أكثر من 4000 مطار (تقارير الطقس للمطار METAR والتنبؤ بالطقس بالمطارTAF).

المحطات المتاحة هي النقط الصفراء والحمراء على الخريطة.

حرك المؤشر فوق النقطة لمعرفة اسم المحطة.

ثم انقر لمعرفة أرصاد وتوقعات الطقس.

لتغيير الخارطة: اضغط على الأزرار الخضراء مع رمز الصليب الأسود للتكبير. على الزر الأخضر مع شرطة للتصغير، أو على الأسهم الخضراء للخرائط المجاورة.


METAR-TAF: